createdAt,value
2018-09-06T00:00:19.194Z,15.30
2018-09-06T00:02:54.220Z,15.25
2018-09-06T00:05:28.758Z,15.27
2018-09-06T00:08:04.077Z,15.32
2018-09-06T00:10:41.482Z,15.37
2018-09-06T00:13:16.200Z,15.44
2018-09-06T00:15:51.624Z,15.47
2018-09-06T00:18:26.244Z,15.46
2018-09-06T00:21:01.277Z,15.39
2018-09-06T00:23:35.779Z,15.39
2018-09-06T00:26:10.108Z,15.31
2018-09-06T00:28:44.794Z,15.28
2018-09-06T00:31:19.690Z,15.27
2018-09-06T00:33:54.683Z,15.22
2018-09-06T00:36:29.380Z,15.21
2018-09-06T00:39:04.930Z,15.17
2018-09-06T00:41:43.057Z,15.14
2018-09-06T00:44:18.037Z,15.13
2018-09-06T00:46:52.952Z,15.06
2018-09-06T00:49:27.362Z,14.98
2018-09-06T00:52:02.055Z,15.01
2018-09-06T00:54:36.967Z,14.99
2018-09-06T00:57:11.812Z,14.92
2018-09-06T00:59:46.846Z,14.86
2018-09-06T01:02:21.431Z,14.84
2018-09-06T01:04:56.200Z,14.86
2018-09-06T01:07:31.175Z,14.78
2018-09-06T01:10:06.789Z,14.69
2018-09-06T01:12:41.455Z,14.67
2018-09-06T01:15:15.982Z,14.70
2018-09-06T01:17:50.522Z,14.62
2018-09-06T01:20:24.887Z,14.56
2018-09-06T01:22:59.610Z,14.54
2018-09-06T01:25:39.888Z,14.51
2018-09-06T01:28:14.511Z,14.49
2018-09-06T01:30:49.920Z,14.47
2018-09-06T01:33:24.331Z,14.44
2018-09-06T01:36:04.609Z,14.40
2018-09-06T01:38:38.961Z,14.45
2018-09-06T01:41:14.103Z,14.41
2018-09-06T01:43:48.784Z,14.40
2018-09-06T01:46:23.559Z,14.38
2018-09-06T01:48:58.052Z,14.40
2018-09-06T01:51:32.688Z,14.32
2018-09-06T01:54:07.628Z,14.30
2018-09-06T01:56:42.583Z,14.25
2018-09-06T01:59:17.079Z,14.23
2018-09-06T02:01:52.387Z,14.19
2018-09-06T02:04:26.734Z,14.18
2018-09-06T02:07:01.585Z,14.22
2018-09-06T02:09:36.196Z,14.17
2018-09-06T02:12:11.175Z,14.11
2018-09-06T02:14:45.768Z,14.05
2018-09-06T02:17:20.747Z,14.02
2018-09-06T02:19:55.565Z,14.03
2018-09-06T02:22:30.333Z,14.13
2018-09-06T02:25:04.951Z,14.04
2018-09-06T02:27:39.641Z,13.94
2018-09-06T02:30:14.467Z,13.88
2018-09-06T02:32:48.796Z,13.84
2018-09-06T02:35:23.218Z,13.85
2018-09-06T02:37:58.076Z,13.74
2018-09-06T02:40:39.216Z,13.68
2018-09-06T02:43:15.039Z,13.70
2018-09-06T02:45:49.767Z,13.67
2018-09-06T02:48:30.238Z,13.60
2018-09-06T02:51:09.873Z,13.52
2018-09-06T02:53:45.177Z,13.42
2018-09-06T02:56:19.940Z,13.37
2018-09-06T02:58:54.999Z,13.41
2018-09-06T03:01:29.996Z,13.33
2018-09-06T03:04:04.620Z,13.35
2018-09-06T03:06:39.292Z,13.40
2018-09-06T03:09:13.691Z,13.31
2018-09-06T03:11:49.227Z,13.29
2018-09-06T03:14:23.742Z,13.34
2018-09-06T03:16:58.501Z,13.36
2018-09-06T03:19:33.242Z,13.36
2018-09-06T03:22:08.692Z,13.28
2018-09-06T03:24:43.751Z,13.28
2018-09-06T03:27:18.595Z,13.24
2018-09-06T03:29:53.108Z,13.22
2018-09-06T03:32:28.593Z,13.14
2018-09-06T03:35:03.453Z,13.21
2018-09-06T03:37:38.419Z,13.27
2018-09-06T03:40:12.871Z,13.30
2018-09-06T03:42:47.587Z,13.23
2018-09-06T03:45:21.967Z,13.13
2018-09-06T03:47:56.965Z,13.07
2018-09-06T03:50:32.267Z,13.13
2018-09-06T03:53:06.862Z,13.11
2018-09-06T03:55:41.719Z,13.11
2018-09-06T03:58:16.335Z,13.10
2018-09-06T04:00:51.208Z,13.10
2018-09-06T04:03:26.068Z,13.08
2018-09-06T04:06:00.656Z,13.08
2018-09-06T04:08:35.143Z,13.05
2018-09-06T04:11:09.944Z,13.05
2018-09-06T04:13:45.074Z,13.09
2018-09-06T04:16:19.558Z,13.14
2018-09-06T04:18:54.415Z,13.09
2018-09-06T04:21:28.975Z,13.04
2018-09-06T04:24:03.831Z,13.02
2018-09-06T04:26:38.124Z,13.03
2018-09-06T04:29:12.668Z,12.98
2018-09-06T04:31:47.432Z,13.01
2018-09-06T04:34:21.907Z,13.00
2018-09-06T04:36:56.656Z,12.98
2018-09-06T04:39:31.311Z,12.92
2018-09-06T04:42:06.298Z,12.90
2018-09-06T04:44:41.469Z,12.89
2018-09-06T04:47:16.044Z,12.92
2018-09-06T04:49:50.679Z,12.92
2018-09-06T04:52:25.421Z,12.88
2018-09-06T04:55:00.392Z,12.89
2018-09-06T04:57:35.268Z,12.92
2018-09-06T05:00:09.764Z,12.89
2018-09-06T05:02:44.364Z,12.90
2018-09-06T05:05:19.245Z,12.90
2018-09-06T05:07:53.943Z,12.93
2018-09-06T05:10:28.461Z,12.93
2018-09-06T05:13:02.807Z,12.94
2018-09-06T05:15:37.212Z,12.99
2018-09-06T05:18:11.752Z,13.00
2018-09-06T05:20:46.579Z,13.07
2018-09-06T05:23:21.048Z,13.06
2018-09-06T05:25:55.687Z,13.07
2018-09-06T05:28:30.644Z,13.20
2018-09-06T05:31:05.224Z,13.24
2018-09-06T05:33:39.737Z,13.32
2018-09-06T05:36:14.303Z,13.44
2018-09-06T05:38:49.107Z,13.40
2018-09-06T05:41:23.760Z,13.41
2018-09-06T05:43:58.642Z,13.39
2018-09-06T05:46:33.461Z,13.44
2018-09-06T05:49:08.179Z,13.53
2018-09-06T05:51:42.864Z,13.60
2018-09-06T05:54:17.356Z,13.65
2018-09-06T05:56:52.038Z,13.74
2018-09-06T05:59:26.926Z,13.83
2018-09-06T06:02:01.756Z,13.91
2018-09-06T06:04:36.649Z,13.98
2018-09-06T06:07:11.625Z,14.06
2018-09-06T06:09:46.359Z,14.15
2018-09-06T06:12:20.815Z,14.28
2018-09-06T06:14:55.749Z,14.33
2018-09-06T06:17:30.287Z,14.32
2018-09-06T06:20:05.586Z,14.50
2018-09-06T06:22:40.469Z,14.60
2018-09-06T06:25:14.941Z,14.66
2018-09-06T06:27:50.362Z,14.77
2018-09-06T06:30:25.432Z,14.88
2018-09-06T06:33:00.179Z,14.96
2018-09-06T06:35:34.968Z,15.07
2018-09-06T06:38:09.311Z,15.19
2018-09-06T06:40:43.767Z,15.24
2018-09-06T06:43:18.711Z,15.37
2018-09-06T06:45:53.479Z,15.53
2018-09-06T06:48:28.284Z,15.59
2018-09-06T06:51:02.963Z,15.72
2018-09-06T06:53:37.358Z,15.77
2018-09-06T06:56:12.183Z,15.82
2018-09-06T06:58:47.223Z,15.94
2018-09-06T07:01:22.392Z,16.03
2018-09-06T07:03:57.136Z,16.12
2018-09-06T07:06:32.043Z,16.24
2018-09-06T07:09:08.327Z,16.45
2018-09-06T07:11:42.828Z,16.46
2018-09-06T07:14:17.216Z,16.53
2018-09-06T07:16:52.068Z,16.62
2018-09-06T07:19:27.414Z,16.69
2018-09-06T07:22:02.080Z,16.82
2018-09-06T07:24:36.727Z,16.90
2018-09-06T07:27:11.595Z,17.05
2018-09-06T07:29:46.439Z,17.08
2018-09-06T07:32:22.033Z,17.12
2018-09-06T07:34:57.503Z,17.24
2018-09-06T07:37:32.228Z,17.33
2018-09-06T07:40:06.823Z,17.44
2018-09-06T07:42:41.784Z,17.67
2018-09-06T07:45:16.275Z,17.74
2018-09-06T07:47:50.870Z,17.78
2018-09-06T07:50:25.675Z,17.93
2018-09-06T07:53:00.657Z,18.00
2018-09-06T07:55:35.660Z,18.14
2018-09-06T07:58:10.800Z,18.20
2018-09-06T08:00:45.113Z,18.35
2018-09-06T08:03:20.345Z,18.58
2018-09-06T08:05:55.092Z,18.84
2018-09-06T08:08:29.525Z,19.07
2018-09-06T08:11:04.428Z,19.24
2018-09-06T08:13:39.612Z,19.46
2018-09-06T08:16:14.060Z,19.72
2018-09-06T08:18:49.430Z,19.93
2018-09-06T08:21:24.603Z,20.08
2018-09-06T08:23:59.106Z,20.29
2018-09-06T08:26:34.127Z,20.59
2018-09-06T08:29:08.939Z,20.96
2018-09-06T08:31:43.301Z,21.22
2018-09-06T08:34:18.492Z,21.37
2018-09-06T08:36:53.530Z,21.29
2018-09-06T08:39:28.835Z,21.26
2018-09-06T08:42:03.295Z,21.29
2018-09-06T08:44:38.296Z,21.46
2018-09-06T08:47:12.788Z,21.71
2018-09-06T08:49:47.783Z,22.05
2018-09-06T08:52:22.237Z,22.19
2018-09-06T08:54:57.204Z,22.30
2018-09-06T08:57:31.752Z,22.35
2018-09-06T09:00:06.304Z,22.67
2018-09-06T09:02:40.876Z,23.04
2018-09-06T09:05:15.633Z,23.41
2018-09-06T09:07:50.704Z,23.79
2018-09-06T09:10:25.710Z,23.82
2018-09-06T09:13:00.909Z,23.75
2018-09-06T09:15:35.872Z,23.88
2018-09-06T09:18:10.558Z,23.84
2018-09-06T09:20:45.130Z,24.21
2018-09-06T09:23:19.540Z,24.60
2018-09-06T09:25:54.388Z,24.87
2018-09-06T09:28:28.875Z,25.17
2018-09-06T09:31:03.582Z,25.24
2018-09-06T09:33:38.449Z,25.22
2018-09-06T09:36:14.942Z,25.25
2018-09-06T09:38:50.560Z,25.46
2018-09-06T09:41:25.160Z,25.66
2018-09-06T09:43:59.888Z,25.60
2018-09-06T09:49:09.003Z,25.78
2018-09-06T09:51:43.846Z,25.91
2018-09-06T09:54:18.479Z,25.84
2018-09-06T09:56:52.958Z,25.98
2018-09-06T09:59:27.664Z,26.25
2018-09-06T10:02:07.206Z,26.41
2018-09-06T10:04:47.183Z,26.42
2018-09-06T10:07:27.081Z,26.01
2018-09-06T10:10:02.834Z,25.56
2018-09-06T10:12:37.631Z,25.23
2018-09-06T10:15:12.635Z,25.29
2018-09-06T10:17:47.413Z,25.65
2018-09-06T10:20:22.227Z,26.11
2018-09-06T10:22:57.074Z,26.42
2018-09-06T10:25:31.807Z,26.44
2018-09-06T10:28:06.491Z,26.52
2018-09-06T10:30:41.530Z,26.65
2018-09-06T10:33:16.452Z,26.76
2018-09-06T10:35:51.781Z,26.72
2018-09-06T10:38:26.419Z,27.00
2018-09-06T10:41:00.878Z,27.36
2018-09-06T10:43:35.820Z,27.66
2018-09-06T10:46:10.485Z,27.87
2018-09-06T10:48:45.399Z,28.07
2018-09-06T10:51:19.785Z,28.04
2018-09-06T10:53:54.884Z,27.95
2018-09-06T10:56:29.957Z,28.21
2018-09-06T10:59:04.411Z,28.18
2018-09-06T11:01:39.647Z,28.16
2018-09-06T11:04:14.650Z,28.35
2018-09-06T11:06:49.074Z,28.66
2018-09-06T11:09:23.926Z,28.70
2018-09-06T11:11:58.828Z,28.52
2018-09-06T11:14:33.200Z,28.41
2018-09-06T11:17:08.420Z,28.46
2018-09-06T11:19:42.713Z,28.38
2018-09-06T11:22:17.349Z,28.17
2018-09-06T11:24:52.375Z,28.28
2018-09-06T11:27:27.243Z,28.06
2018-09-06T11:30:01.876Z,28.23
2018-09-06T11:32:36.731Z,28.62
2018-09-06T11:35:11.548Z,28.88
2018-09-06T11:37:46.762Z,28.83
2018-09-06T11:40:21.247Z,28.74
2018-09-06T11:42:56.738Z,28.69
2018-09-06T11:45:31.623Z,28.46
2018-09-06T11:48:05.971Z,28.59
2018-09-06T11:50:41.191Z,28.53
2018-09-06T11:53:15.647Z,28.39
2018-09-06T11:55:50.724Z,28.28
2018-09-06T11:58:25.495Z,28.46
2018-09-06T12:00:59.971Z,28.76
2018-09-06T12:03:35.127Z,29.05
2018-09-06T12:06:10.071Z,28.83
2018-09-06T12:08:45.259Z,28.80
2018-09-06T12:11:19.780Z,29.07
2018-09-06T12:13:54.650Z,29.16
2018-09-06T12:16:29.209Z,29.06
2018-09-06T12:19:04.361Z,29.09
2018-09-06T12:21:39.420Z,29.08
2018-09-06T12:24:14.171Z,29.09
2018-09-06T12:26:48.871Z,29.05
2018-09-06T12:29:23.611Z,27.99
2018-09-06T12:31:58.869Z,28.52
2018-09-06T12:34:34.004Z,28.90
2018-09-06T12:37:12.117Z,29.04
2018-09-06T12:39:46.752Z,29.46
2018-09-06T12:42:21.983Z,29.69
2018-09-06T12:44:56.835Z,29.67
2018-09-06T12:47:32.039Z,29.63
2018-09-06T12:50:06.764Z,29.76
2018-09-06T12:52:41.520Z,29.88
2018-09-06T12:55:16.072Z,29.81
2018-09-06T12:57:51.533Z,29.66
2018-09-06T13:00:26.599Z,29.71
2018-09-06T13:03:01.138Z,29.84
2018-09-06T13:05:35.645Z,29.54
2018-09-06T13:08:10.181Z,29.25
2018-09-06T13:10:45.675Z,29.36
2018-09-06T13:13:20.338Z,29.42
2018-09-06T13:15:54.772Z,29.53
2018-09-06T13:18:29.289Z,29.27
2018-09-06T13:21:03.971Z,29.32
2018-09-06T13:23:38.488Z,29.28
2018-09-06T13:26:13.511Z,29.31
2018-09-06T13:28:47.965Z,29.51
2018-09-06T13:31:22.743Z,29.71
2018-09-06T13:33:57.511Z,29.97
2018-09-06T13:36:32.028Z,30.03
2018-09-06T13:39:09.037Z,30.22
2018-09-06T13:41:43.451Z,30.26
2018-09-06T13:44:18.179Z,30.13
2018-09-06T13:46:53.159Z,29.73
2018-09-06T13:49:27.849Z,29.64
2018-09-06T13:52:02.393Z,29.49
2018-09-06T13:54:37.507Z,29.29
2018-09-06T13:57:11.987Z,29.46
2018-09-06T13:59:46.252Z,29.70
2018-09-06T14:02:20.959Z,29.86
2018-09-06T14:04:55.653Z,29.96
2018-09-06T14:07:30.531Z,29.69
2018-09-06T14:10:05.646Z,29.59
2018-09-06T14:12:40.463Z,29.57
2018-09-06T14:15:15.240Z,29.74
2018-09-06T14:17:49.693Z,29.66
2018-09-06T14:20:24.091Z,29.48
2018-09-06T14:22:58.487Z,29.54
2018-09-06T14:25:33.602Z,29.44
2018-09-06T14:28:08.215Z,29.41
2018-09-06T14:30:42.819Z,29.39
2018-09-06T14:33:17.408Z,29.48
2018-09-06T14:35:51.952Z,29.32
2018-09-06T14:38:26.590Z,29.06
2018-09-06T14:41:01.183Z,28.89
2018-09-06T14:43:35.801Z,28.81
2018-09-06T14:46:10.387Z,28.65
2018-09-06T14:48:44.789Z,28.67
2018-09-06T14:51:19.472Z,28.83
2018-09-06T14:53:54.155Z,28.84
2018-09-06T14:56:29.235Z,28.83
2018-09-06T14:59:03.801Z,28.82
2018-09-06T15:01:38.292Z,28.85
2018-09-06T15:04:12.957Z,28.88
2018-09-06T15:06:47.897Z,28.84
2018-09-06T15:09:22.213Z,28.74
2018-09-06T15:11:57.039Z,28.68
2018-09-06T15:14:31.775Z,28.46
2018-09-06T15:17:06.239Z,28.25
2018-09-06T15:19:40.925Z,28.13
2018-09-06T15:22:15.294Z,28.17
2018-09-06T15:24:49.710Z,28.10
2018-09-06T15:27:24.154Z,28.21
2018-09-06T15:29:58.468Z,28.13
2018-09-06T15:32:33.362Z,28.05
2018-09-06T15:35:07.959Z,27.97
2018-09-06T15:37:42.450Z,27.90
2018-09-06T15:40:16.816Z,27.90
2018-09-06T15:42:51.326Z,27.86
2018-09-06T15:45:25.775Z,27.77
2018-09-06T15:48:00.320Z,27.51
2018-09-06T15:50:36.661Z,27.39
2018-09-06T15:53:11.319Z,27.29
2018-09-06T15:55:46.628Z,27.26
2018-09-06T15:58:21.259Z,27.24
2018-09-06T16:00:55.666Z,27.15
2018-09-06T16:03:30.469Z,27.13
2018-09-06T16:06:05.647Z,26.97
2018-09-06T16:08:40.111Z,26.81
2018-09-06T16:11:14.839Z,26.63
2018-09-06T16:13:49.728Z,26.52
2018-09-06T16:16:24.044Z,26.42
2018-09-06T16:18:58.652Z,26.36
2018-09-06T16:21:33.322Z,26.22
2018-09-06T16:24:07.833Z,26.14
2018-09-06T16:26:44.728Z,26.05
2018-09-06T16:29:19.289Z,25.79
2018-09-06T16:31:53.820Z,25.58
2018-09-06T16:34:29.065Z,25.33
2018-09-06T16:37:03.758Z,25.10
2018-09-06T16:39:38.415Z,24.96
2018-09-06T16:42:13.199Z,24.77
2018-09-06T16:44:47.836Z,24.63
2018-09-06T16:47:22.199Z,24.49
2018-09-06T16:49:56.649Z,24.28
2018-09-06T16:52:31.274Z,24.23
2018-09-06T16:55:08.436Z,24.04
2018-09-06T16:57:43.236Z,23.95
2018-09-06T17:00:17.723Z,23.87
2018-09-06T17:02:52.315Z,23.69
2018-09-06T17:05:27.103Z,23.61
2018-09-06T17:08:01.971Z,23.51
2018-09-06T17:10:36.472Z,23.36
2018-09-06T17:13:11.101Z,23.33
2018-09-06T17:15:45.649Z,23.19
2018-09-06T17:18:20.095Z,23.08
2018-09-06T17:20:54.561Z,22.98
2018-09-06T17:23:29.538Z,22.80
2018-09-06T17:26:04.678Z,22.70
2018-09-06T17:28:39.257Z,22.50
2018-09-06T17:31:13.903Z,22.38
2018-09-06T17:33:48.220Z,22.30
2018-09-06T17:36:23.234Z,22.25
2018-09-06T17:38:57.726Z,22.13
2018-09-06T17:41:32.428Z,22.03
2018-09-06T17:44:07.168Z,21.95
2018-09-06T17:46:41.701Z,21.84
2018-09-06T17:49:16.667Z,21.69
2018-09-06T17:51:51.382Z,21.58
2018-09-06T17:54:25.863Z,21.44
2018-09-06T17:57:00.927Z,21.40
2018-09-06T17:59:35.212Z,21.31
2018-09-06T18:02:10.057Z,21.19
2018-09-06T18:04:45.059Z,21.06
2018-09-06T18:07:19.768Z,20.99
2018-09-06T18:09:54.044Z,20.99
2018-09-06T18:12:28.711Z,20.99
2018-09-06T18:15:03.169Z,20.91
2018-09-06T18:17:37.871Z,20.81
2018-09-06T18:20:12.443Z,20.72
2018-09-06T18:22:47.213Z,20.84
2018-09-06T18:25:21.658Z,20.72
2018-09-06T18:27:56.992Z,20.67
2018-09-06T18:30:31.616Z,20.65
2018-09-06T18:33:06.088Z,20.59
2018-09-06T18:35:40.913Z,20.64
2018-09-06T18:38:15.708Z,20.62
2018-09-06T18:40:50.701Z,20.59
2018-09-06T18:43:25.019Z,20.59
2018-09-06T18:45:59.299Z,20.63
2018-09-06T18:48:34.372Z,20.51
2018-09-06T18:51:09.154Z,20.53
2018-09-06T18:53:44.234Z,20.48
2018-09-06T18:56:18.796Z,20.39
2018-09-06T18:58:53.445Z,20.29
2018-09-06T19:01:27.972Z,20.27
2018-09-06T19:04:02.472Z,20.26
2018-09-06T19:06:37.663Z,20.16
2018-09-06T19:09:13.299Z,20.16
2018-09-06T19:11:47.915Z,20.15
2018-09-06T19:14:22.785Z,20.19
2018-09-06T19:16:57.344Z,20.23
2018-09-06T19:19:31.796Z,20.27
2018-09-06T19:22:06.431Z,20.32
2018-09-06T19:24:44.819Z,20.38
2018-09-06T19:27:19.319Z,20.42
2018-09-06T19:29:53.876Z,20.40
2018-09-06T19:32:28.731Z,20.46
2018-09-06T19:35:03.536Z,20.39
2018-09-06T19:37:37.843Z,20.46
2018-09-06T19:40:12.640Z,20.42
2018-09-06T19:42:47.391Z,20.42
2018-09-06T19:45:22.113Z,20.46
2018-09-06T19:47:56.757Z,20.36
2018-09-06T19:50:31.279Z,20.40
2018-09-06T19:53:05.976Z,20.37
2018-09-06T19:55:40.311Z,20.36
2018-09-06T19:58:15.275Z,20.15
2018-09-06T20:00:50.267Z,20.15
2018-09-06T20:03:24.799Z,19.91
2018-09-06T20:05:59.396Z,19.88
2018-09-06T20:08:33.848Z,19.70
2018-09-06T20:11:08.343Z,19.59
2018-09-06T20:13:42.991Z,19.48
2018-09-06T20:16:19.483Z,19.31
2018-09-06T20:18:54.152Z,19.29
2018-09-06T20:24:29.724Z,18.95
2018-09-06T20:27:05.135Z,19.02
2018-09-06T20:29:39.846Z,19.00
2018-09-06T20:32:14.807Z,19.01
2018-09-06T20:34:49.935Z,18.98
2018-09-06T20:37:24.843Z,18.80
2018-09-06T20:40:02.207Z,18.62
2018-09-06T20:42:40.820Z,18.51
2018-09-06T20:45:15.517Z,18.37
2018-09-06T20:47:50.276Z,18.30
2018-09-06T20:50:25.224Z,18.28
2018-09-06T20:53:00.148Z,18.23
2018-09-06T20:55:35.080Z,18.16
2018-09-06T20:58:09.971Z,18.13
2018-09-06T21:00:44.476Z,18.10
2018-09-06T21:03:20.772Z,18.08
2018-09-06T21:05:56.076Z,17.94
2018-09-06T21:08:31.373Z,17.78
2018-09-06T21:11:07.351Z,17.73
2018-09-06T21:13:42.064Z,17.71
2018-09-06T21:16:16.793Z,17.79
2018-09-06T21:18:51.466Z,17.79
2018-09-06T21:21:25.957Z,17.75
2018-09-06T21:24:00.835Z,17.69
2018-09-06T21:26:35.747Z,17.76
2018-09-06T21:29:10.431Z,17.72
2018-09-06T21:31:44.838Z,17.75
2018-09-06T21:34:19.299Z,17.76
2018-09-06T21:36:53.912Z,17.79
2018-09-06T21:39:28.380Z,17.78
2018-09-06T21:42:03.502Z,17.81
2018-09-06T21:44:38.036Z,17.75
2018-09-06T21:47:12.500Z,17.82
2018-09-06T21:49:46.815Z,17.84
2018-09-06T21:52:21.227Z,17.85
2018-09-06T21:54:56.061Z,17.80
2018-09-06T21:57:30.708Z,17.75
2018-09-06T22:00:05.693Z,17.72
2018-09-06T22:03:44.488Z,17.68
2018-09-06T22:06:19.244Z,17.52
2018-09-06T22:08:53.623Z,17.44
2018-09-06T22:11:28.359Z,17.42
2018-09-06T22:14:03.209Z,17.41
2018-09-06T22:16:37.862Z,17.37
2018-09-06T22:19:12.563Z,17.34
2018-09-06T22:21:47.168Z,17.29
2018-09-06T22:24:22.088Z,17.29
2018-09-06T22:26:56.428Z,17.37
2018-09-06T22:29:31.469Z,17.26
2018-09-06T22:32:06.070Z,17.18
2018-09-06T22:34:40.555Z,17.21
2018-09-06T22:37:14.894Z,17.23
2018-09-06T22:39:49.672Z,17.18
2018-09-06T22:42:23.952Z,17.18
2018-09-06T22:44:58.761Z,17.29
2018-09-06T22:47:33.764Z,17.18
2018-09-06T22:50:08.683Z,17.20
2018-09-06T22:52:43.420Z,17.23
2018-09-06T22:55:18.559Z,17.27
2018-09-06T22:57:52.987Z,17.17
2018-09-06T23:00:31.252Z,17.08
2018-09-06T23:03:11.112Z,17.12
2018-09-06T23:05:45.483Z,17.22
2018-09-06T23:08:19.879Z,17.18
2018-09-06T23:10:54.442Z,17.17
2018-09-06T23:13:29.017Z,17.19
2018-09-06T23:16:03.875Z,17.15
2018-09-06T23:18:38.183Z,17.17
2018-09-06T23:21:13.089Z,17.14
2018-09-06T23:23:47.873Z,17.13
2018-09-06T23:26:22.444Z,17.08
2018-09-06T23:28:57.307Z,17.04
2018-09-06T23:31:31.952Z,17.02
2018-09-06T23:34:06.627Z,16.93
2018-09-06T23:36:41.324Z,17.00
2018-09-06T23:39:15.717Z,16.98
2018-09-06T23:41:50.604Z,17.01
2018-09-06T23:44:25.376Z,17.03
2018-09-06T23:47:00.755Z,17.02
2018-09-06T23:49:35.195Z,16.99
2018-09-06T23:52:12.148Z,17.01
2018-09-06T23:54:47.223Z,16.93
2018-09-06T23:57:22.083Z,16.86
2018-09-06T23:59:56.996Z,16.86
